Terminal Aerodrome Forecast
Issued by NWS

Home | Current Version | Previous Version | Text Only | Print | Product List | Glossary On
Versions: 1 2 3 4 5 6 7 8 9 10 11 12 13 14 15
000
FTUS43 KMQT 252300
TAFIWD
TAF
KIWD 252321Z 2600/2624 20007KT P6SM BKN025
     FM260600 24005KT 2SM BR BKN004
     FM261200 29005KT P6SM BKN015
     FM261500 31010KT P6SM SCT025
      AMD NOT SKED=

USA.gov is the U.S. government's official web portal to all federal, state and local government web resources and services.